createdAt,value
2019-05-26T00:02:42.676Z,11.40
2019-05-26T00:06:05.754Z,11.30
2019-05-26T00:09:28.863Z,11.30
2019-05-26T00:12:51.973Z,11.30
2019-05-26T00:16:15.258Z,11.20
2019-05-26T00:19:38.446Z,11.20
2019-05-26T00:23:01.560Z,11.20
2019-05-26T00:26:24.667Z,11.20
2019-05-26T00:29:47.922Z,11.20
2019-05-26T00:33:11.231Z,11.20
2019-05-26T00:36:34.461Z,11.10
2019-05-26T00:39:57.891Z,11.10
2019-05-26T00:43:21.039Z,11.10
2019-05-26T00:46:44.118Z,11.10
2019-05-26T00:50:07.727Z,11.10
2019-05-26T00:53:30.852Z,11.10
2019-05-26T00:56:54.060Z,11.10
2019-05-26T01:00:40.290Z,11.10
2019-05-26T01:04:03.889Z,11.10
2019-05-26T01:07:27.084Z,11.00
2019-05-26T01:10:50.257Z,11.00
2019-05-26T01:14:13.458Z,11.00
2019-05-26T01:17:36.803Z,11.10
2019-05-26T01:21:00.037Z,11.10
2019-05-26T01:24:23.214Z,11.30
2019-05-26T01:27:46.306Z,11.60
2019-05-26T01:31:09.513Z,11.80
2019-05-26T01:34:33.762Z,11.90
2019-05-26T01:38:22.539Z,12.00
2019-05-26T01:41:31.525Z,12.10
2019-05-26T01:44:55.976Z,12.20
2019-05-26T01:48:19.227Z,12.20
2019-05-26T01:51:42.458Z,12.20
2019-05-26T01:55:05.731Z,12.10
2019-05-26T01:58:29.850Z,12.10
2019-05-26T02:01:53.385Z,12.10
2019-05-26T02:05:16.474Z,12.20
2019-05-26T02:08:40.027Z,12.10
2019-05-26T02:12:03.774Z,12.10
2019-05-26T02:15:29.035Z,12.00
2019-05-26T02:18:52.229Z,12.00
2019-05-26T02:22:15.364Z,12.00
2019-05-26T02:25:39.479Z,11.90
2019-05-26T02:29:02.615Z,11.90
2019-05-26T02:32:25.730Z,11.80
2019-05-26T02:35:48.863Z,11.80
2019-05-26T02:39:12.146Z,11.70
2019-05-26T02:42:35.323Z,11.70
2019-05-26T02:45:58.450Z,11.60
2019-05-26T02:49:21.856Z,11.60
2019-05-26T02:52:44.960Z,11.60
2019-05-26T02:56:09.315Z,11.50
2019-05-26T02:59:32.432Z,11.50
2019-05-26T03:02:55.803Z,11.40
2019-05-26T03:06:20.454Z,11.40
2019-05-26T03:09:44.228Z,11.50
2019-05-26T03:13:08.296Z,11.50
2019-05-26T03:16:35.170Z,11.40
2019-05-26T03:20:01.369Z,11.50
2019-05-26T03:23:29.273Z,11.40
2019-05-26T03:26:52.338Z,11.30
2019-05-26T03:30:16.391Z,11.30
2019-05-26T03:33:40.103Z,11.10
2019-05-26T03:37:03.365Z,11.00
2019-05-26T03:40:26.572Z,11.00
2019-05-26T03:43:49.642Z,11.00
2019-05-26T03:47:16.563Z,11.10
2019-05-26T03:50:38.586Z,11.10
2019-05-26T03:54:01.742Z,11.20
2019-05-26T03:57:24.796Z,11.30
2019-05-26T04:00:48.032Z,11.30
2019-05-26T04:04:11.172Z,11.40
2019-05-26T04:07:34.370Z,11.40
2019-05-26T04:10:57.415Z,11.50
2019-05-26T04:14:21.263Z,11.50
2019-05-26T04:17:44.500Z,11.60
2019-05-26T04:21:07.923Z,11.70
2019-05-26T04:24:33.027Z,11.70
2019-05-26T04:27:57.275Z,11.80
2019-05-26T04:31:20.484Z,11.90
2019-05-26T04:34:43.563Z,11.90
2019-05-26T04:38:06.698Z,12.00
2019-05-26T04:41:29.840Z,12.00
2019-05-26T04:44:55.553Z,12.10
2019-05-26T04:48:18.590Z,12.10
2019-05-26T04:51:41.730Z,12.20
2019-05-26T04:55:08.022Z,12.30
2019-05-26T04:58:31.136Z,12.30
2019-05-26T05:01:54.400Z,12.40
2019-05-26T05:05:17.497Z,12.40
2019-05-26T05:08:40.667Z,12.50
2019-05-26T05:12:03.781Z,12.60
2019-05-26T05:15:27.000Z,12.70
2019-05-26T05:18:50.303Z,12.80
2019-05-26T05:22:13.502Z,12.80
2019-05-26T05:25:37.589Z,12.90
2019-05-26T05:29:01.025Z,13.10
2019-05-26T05:32:24.670Z,13.20
2019-05-26T05:35:47.676Z,13.40
2019-05-26T05:39:11.031Z,13.50
2019-05-26T05:42:34.176Z,13.60
2019-05-26T05:45:57.366Z,13.60
2019-05-26T05:49:20.545Z,13.60
2019-05-26T05:52:43.724Z,13.60
2019-05-26T05:56:07.437Z,13.70
2019-05-26T05:59:31.049Z,13.80
2019-05-26T06:02:54.456Z,13.80
2019-05-26T06:06:17.561Z,13.90
2019-05-26T06:09:40.803Z,14.10
2019-05-26T06:13:04.450Z,14.20
2019-05-26T06:16:27.850Z,14.30
2019-05-26T06:19:51.305Z,14.40
2019-05-26T06:23:14.657Z,14.50
2019-05-26T06:26:37.790Z,14.70
2019-05-26T06:30:01.093Z,14.80
2019-05-26T06:33:24.146Z,15.00
2019-05-26T06:36:47.419Z,15.10
2019-05-26T06:40:11.752Z,15.30
2019-05-26T06:43:34.962Z,15.40
2019-05-26T06:46:58.021Z,15.30
2019-05-26T06:50:21.806Z,15.20
2019-05-26T06:53:45.454Z,15.20
2019-05-26T06:57:08.707Z,15.20
2019-05-26T07:00:31.995Z,15.40
2019-05-26T07:03:55.253Z,15.50
2019-05-26T07:07:18.817Z,15.60
2019-05-26T07:10:42.047Z,15.60
2019-05-26T07:14:05.271Z,15.50
2019-05-26T07:17:28.444Z,15.50
2019-05-26T07:20:51.752Z,15.70
2019-05-26T07:24:15.176Z,15.90
2019-05-26T07:27:38.293Z,16.10
2019-05-26T07:31:01.502Z,16.40
2019-05-26T07:34:24.978Z,16.60
2019-05-26T07:37:48.206Z,16.80
2019-05-26T07:41:11.504Z,17.30
2019-05-26T07:44:34.867Z,17.70
2019-05-26T07:47:57.944Z,18.00
2019-05-26T07:51:21.153Z,18.00
2019-05-26T07:54:44.303Z,18.20
2019-05-26T07:58:08.531Z,18.50
2019-05-26T08:01:36.041Z,18.60
2019-05-26T08:04:58.191Z,18.90
2019-05-26T08:08:21.371Z,19.10
2019-05-26T08:11:44.625Z,19.30
2019-05-26T08:15:08.200Z,19.50
2019-05-26T08:18:31.744Z,19.50
2019-05-26T08:21:54.925Z,19.50
2019-05-26T08:25:18.200Z,19.40
2019-05-26T08:28:41.299Z,19.50
2019-05-26T08:32:04.493Z,19.50
2019-05-26T08:35:27.594Z,19.60
2019-05-26T08:38:50.880Z,19.90
2019-05-26T08:42:26.230Z,19.90
2019-05-26T08:45:39.115Z,19.60
2019-05-26T08:49:04.004Z,19.50
2019-05-26T08:52:27.111Z,19.80
2019-05-26T08:55:50.316Z,20.10
2019-05-26T08:59:13.646Z,19.90
2019-05-26T09:02:36.865Z,20.20
2019-05-26T09:06:00.196Z,20.30
2019-05-26T09:09:23.305Z,20.50
2019-05-26T09:12:59.761Z,20.40
2019-05-26T09:16:11.445Z,20.20
2019-05-26T09:19:34.760Z,20.00
2019-05-26T09:22:58.306Z,19.80
2019-05-26T09:26:22.515Z,19.60
2019-05-26T09:29:45.654Z,19.50
2019-05-26T09:33:09.091Z,19.60
2019-05-26T09:36:32.189Z,19.80
2019-05-26T09:39:55.417Z,19.70
2019-05-26T09:43:18.660Z,19.50
2019-05-26T09:46:42.066Z,19.50
2019-05-26T09:50:06.680Z,19.80
2019-05-26T09:53:30.028Z,20.20
2019-05-26T09:56:53.136Z,20.90
2019-05-26T10:00:16.636Z,20.90
2019-05-26T10:03:39.815Z,20.90
2019-05-26T10:07:03.030Z,20.60
2019-05-26T10:10:26.287Z,20.60
2019-05-26T10:13:49.577Z,21.00
2019-05-26T10:17:12.729Z,21.10
2019-05-26T10:20:35.839Z,21.30
2019-05-26T10:23:59.309Z,21.40
2019-05-26T10:27:22.503Z,21.50
2019-05-26T10:30:45.700Z,21.60
2019-05-26T10:34:08.769Z,21.50
2019-05-26T10:37:31.875Z,21.50
2019-05-26T10:40:55.038Z,21.40
2019-05-26T10:44:18.322Z,21.50
2019-05-26T10:47:41.537Z,21.90
2019-05-26T10:51:06.847Z,21.90
2019-05-26T10:54:29.786Z,22.10
2019-05-26T10:57:53.041Z,22.10
2019-05-26T11:01:16.281Z,22.20
2019-05-26T11:04:39.609Z,22.10
2019-05-26T11:08:02.825Z,22.20
2019-05-26T11:11:26.380Z,22.40
2019-05-26T11:14:49.812Z,22.40
2019-05-26T11:18:12.917Z,22.50
2019-05-26T11:21:36.056Z,22.90
2019-05-26T11:24:59.285Z,22.90
2019-05-26T11:28:22.514Z,23.10
2019-05-26T11:31:45.947Z,23.30
2019-05-26T11:35:10.132Z,23.10
2019-05-26T11:38:33.886Z,22.90
2019-05-26T11:42:10.567Z,23.00
2019-05-26T11:45:22.260Z,23.10
2019-05-26T11:48:45.704Z,23.00
2019-05-26T11:52:09.239Z,22.70
2019-05-26T11:55:32.517Z,22.70
2019-05-26T11:58:55.619Z,22.80
2019-05-26T12:02:18.716Z,23.20
2019-05-26T12:05:43.283Z,23.10
2019-05-26T12:09:08.022Z,23.10
2019-05-26T12:12:31.102Z,23.20
2019-05-26T12:15:54.298Z,23.10
2019-05-26T12:19:17.529Z,22.90
2019-05-26T12:22:40.804Z,22.50
2019-05-26T12:26:04.062Z,22.50
2019-05-26T12:29:28.618Z,22.40
2019-05-26T12:32:52.000Z,22.30
2019-05-26T12:36:15.780Z,22.10
2019-05-26T12:39:41.191Z,22.40
2019-05-26T12:43:04.471Z,22.40
2019-05-26T12:46:27.752Z,22.40
2019-05-26T12:49:51.070Z,22.60
2019-05-26T12:53:14.495Z,23.00
2019-05-26T12:56:37.805Z,23.70
2019-05-26T13:00:00.924Z,24.40
2019-05-26T13:03:24.231Z,25.90
2019-05-26T13:06:47.362Z,26.90
2019-05-26T13:10:11.747Z,26.10
2019-05-26T13:13:35.216Z,25.90
2019-05-26T13:17:01.419Z,26.00
2019-05-26T13:20:23.629Z,26.00
2019-05-26T13:23:46.733Z,25.90
2019-05-26T13:27:10.129Z,26.00
2019-05-26T13:30:33.555Z,26.00
2019-05-26T13:33:57.316Z,25.20
2019-05-26T13:37:20.534Z,24.70
2019-05-26T13:40:45.125Z,24.10
2019-05-26T13:44:08.263Z,23.80
2019-05-26T13:47:31.657Z,23.80
2019-05-26T13:50:54.864Z,24.00
2019-05-26T13:54:21.595Z,24.20
2019-05-26T13:57:49.547Z,24.10
2019-05-26T14:01:13.325Z,24.20
2019-05-26T14:04:36.513Z,24.00
2019-05-26T14:08:02.475Z,23.90
2019-05-26T14:11:25.652Z,23.90
2019-05-26T14:14:49.356Z,23.80
2019-05-26T14:18:18.366Z,23.60
2019-05-26T14:21:41.443Z,23.60
2019-05-26T14:25:05.049Z,23.30
2019-05-26T14:28:28.082Z,23.10
2019-05-26T14:31:52.886Z,22.80
2019-05-26T14:35:15.826Z,22.80
2019-05-26T14:38:43.209Z,23.00
2019-05-26T14:42:04.113Z,23.30
2019-05-26T14:45:27.401Z,23.00
2019-05-26T14:48:50.942Z,22.90
2019-05-26T14:52:14.358Z,22.70
2019-05-26T14:55:37.559Z,22.70
2019-05-26T14:59:00.806Z,22.60
2019-05-26T15:02:24.151Z,22.40
2019-05-26T15:05:47.246Z,22.30
2019-05-26T15:09:24.288Z,22.50
2019-05-26T15:12:35.475Z,22.60
2019-05-26T15:16:09.195Z,22.70
2019-05-26T15:19:23.686Z,22.60
2019-05-26T15:22:46.780Z,22.60
2019-05-26T15:26:10.139Z,22.60
2019-05-26T15:29:33.435Z,22.60
2019-05-26T15:32:56.957Z,22.30
2019-05-26T15:36:20.648Z,22.20
2019-05-26T15:39:43.881Z,22.00
2019-05-26T15:43:08.044Z,21.90
2019-05-26T15:46:31.306Z,21.60
2019-05-26T15:49:54.643Z,21.50
2019-05-26T15:53:18.176Z,21.30
2019-05-26T15:56:41.750Z,21.20
2019-05-26T16:00:05.669Z,21.30
2019-05-26T16:03:29.262Z,21.30
2019-05-26T16:06:52.761Z,21.40
2019-05-26T16:10:16.038Z,21.40
2019-05-26T16:13:42.252Z,21.40
2019-05-26T16:17:09.473Z,21.20
2019-05-26T16:20:32.766Z,21.00
2019-05-26T16:23:56.054Z,21.00
2019-05-26T16:27:20.019Z,21.00
2019-05-26T16:30:43.402Z,21.00
2019-05-26T16:34:06.816Z,20.80
2019-05-26T16:37:34.247Z,20.70
2019-05-26T16:40:57.732Z,20.60
2019-05-26T16:44:21.562Z,20.70
2019-05-26T16:47:44.877Z,20.90
2019-05-26T16:51:08.516Z,21.00
2019-05-26T16:54:32.249Z,21.10
2019-05-26T16:57:55.439Z,21.20
2019-05-26T17:01:23.848Z,21.20
2019-05-26T17:04:47.571Z,21.10
2019-05-26T17:08:10.997Z,21.10
2019-05-26T17:11:34.173Z,21.20
2019-05-26T17:14:57.418Z,21.50
2019-05-26T17:18:21.469Z,21.70
2019-05-26T17:21:44.793Z,21.80
2019-05-26T17:25:08.194Z,21.90
2019-05-26T17:28:31.578Z,21.90
2019-05-26T17:31:54.762Z,21.90
2019-05-26T17:35:19.140Z,21.90
2019-05-26T17:38:42.602Z,22.20
2019-05-26T17:42:05.971Z,22.30
2019-05-26T17:45:29.398Z,22.50
2019-05-26T17:48:52.709Z,22.30
2019-05-26T17:52:16.450Z,21.90
2019-05-26T17:55:40.015Z,21.70
2019-05-26T17:59:04.675Z,21.40
2019-05-26T18:02:29.361Z,21.10
2019-05-26T18:05:52.950Z,21.00
2019-05-26T18:09:16.475Z,20.90
2019-05-26T18:12:39.733Z,20.80
2019-05-26T18:16:02.952Z,20.70
2019-05-26T18:19:29.963Z,20.50
2019-05-26T18:22:53.736Z,20.40
2019-05-26T18:26:18.734Z,20.20
2019-05-26T18:29:44.143Z,20.10
2019-05-26T18:33:07.500Z,19.90
2019-05-26T18:36:30.635Z,19.90
2019-05-26T18:39:54.086Z,19.90
2019-05-26T18:43:17.344Z,19.90
2019-05-26T18:46:43.414Z,19.90
2019-05-26T18:50:07.218Z,19.80
2019-05-26T18:53:30.571Z,19.60
2019-05-26T18:56:54.089Z,19.50
2019-05-26T19:00:17.521Z,19.40
2019-05-26T19:03:44.038Z,19.40
2019-05-26T19:07:07.573Z,19.30
2019-05-26T19:10:31.098Z,19.20
2019-05-26T19:13:54.574Z,19.10
2019-05-26T19:17:18.957Z,19.00
2019-05-26T19:20:42.589Z,18.90
2019-05-26T19:24:06.320Z,18.80
2019-05-26T19:27:29.703Z,18.70
2019-05-26T19:30:53.278Z,18.60
2019-05-26T19:34:16.767Z,18.50
2019-05-26T19:37:42.503Z,18.50
2019-05-26T19:41:06.437Z,18.50
2019-05-26T19:44:30.377Z,18.40
2019-05-26T19:47:53.775Z,18.50
2019-05-26T19:51:17.099Z,18.50
2019-05-26T19:54:40.543Z,18.50
2019-05-26T19:58:04.295Z,18.60
2019-05-26T20:01:28.306Z,18.60
2019-05-26T20:04:51.452Z,18.60
2019-05-26T20:08:19.623Z,18.60
2019-05-26T20:11:42.868Z,18.60
2019-05-26T20:15:08.930Z,18.60
2019-05-26T20:18:32.254Z,18.50
2019-05-26T20:21:56.467Z,18.50
2019-05-26T20:25:19.738Z,18.50
2019-05-26T20:28:43.021Z,18.50
2019-05-26T20:32:06.181Z,18.40
2019-05-26T20:35:31.383Z,18.50
2019-05-26T20:38:54.687Z,18.40
2019-05-26T20:42:18.353Z,18.30
2019-05-26T20:45:41.584Z,18.20
2019-05-26T20:49:05.152Z,18.10
2019-05-26T20:52:30.332Z,17.90
2019-05-26T20:55:54.178Z,17.80
2019-05-26T20:59:17.306Z,17.70
2019-05-26T21:02:40.592Z,17.60
2019-05-26T21:06:03.998Z,17.50
2019-05-26T21:09:27.290Z,17.50
2019-05-26T21:12:50.640Z,17.40
2019-05-26T21:16:13.981Z,17.40
2019-05-26T21:19:37.257Z,17.20
2019-05-26T21:23:00.514Z,17.20
2019-05-26T21:26:23.983Z,17.10
2019-05-26T21:29:47.347Z,17.10
2019-05-26T21:33:10.592Z,17.00
2019-05-26T21:36:33.891Z,17.00
2019-05-26T21:39:57.065Z,16.90
2019-05-26T21:43:20.176Z,16.80
2019-05-26T21:46:43.382Z,16.80
2019-05-26T21:50:07.154Z,16.80
2019-05-26T21:53:30.467Z,16.90
2019-05-26T21:56:53.618Z,16.90
2019-05-26T22:00:20.503Z,16.90
2019-05-26T22:03:45.735Z,16.80
2019-05-26T22:07:10.138Z,16.80
2019-05-26T22:10:33.435Z,16.80
2019-05-26T22:13:56.828Z,16.80
2019-05-26T22:17:20.165Z,16.80
2019-05-26T22:20:43.480Z,16.70
2019-05-26T22:24:06.749Z,16.70
2019-05-26T22:27:30.374Z,16.70
2019-05-26T22:30:53.613Z,16.60
2019-05-26T22:34:16.888Z,16.60
2019-05-26T22:37:40.154Z,16.60
2019-05-26T22:41:03.281Z,16.50
2019-05-26T22:44:26.730Z,16.50
2019-05-26T22:47:50.067Z,16.50
2019-05-26T22:51:13.257Z,16.40
2019-05-26T22:54:36.474Z,16.40
2019-05-26T22:57:59.766Z,16.40
2019-05-26T23:01:23.937Z,16.40
2019-05-26T23:04:47.532Z,16.40
2019-05-26T23:08:10.756Z,16.40
2019-05-26T23:12:19.647Z,16.40
2019-05-26T23:15:43.099Z,16.40
2019-05-26T23:19:18.837Z,16.30
2019-05-26T23:22:31.252Z,16.30
2019-05-26T23:25:54.517Z,16.30
2019-05-26T23:29:17.645Z,16.30
2019-05-26T23:32:40.947Z,16.30
2019-05-26T23:36:04.505Z,16.30
2019-05-26T23:39:27.798Z,16.20
2019-05-26T23:42:51.476Z,16.10
2019-05-26T23:46:14.583Z,15.70
2019-05-26T23:49:38.042Z,15.30
2019-05-26T23:53:01.226Z,15.10
2019-05-26T23:56:24.496Z,14.90
2019-05-26T23:59:47.735Z,14.90
